Nearby METAR Reports

 

KSEE - San Diego/Santee, California, USA
Distance from station: E 4mi, 6km
Updated: 01/15/2019 4:47pm
Overcast
Overcast
 Wind from varies
Wind: varies 7 mph , 11 km/h
Temperature: 57°F , 14°C
Dew Point: 50°F , 10°C
Humidity: 77%
Barometer: 30.05 inHg , 1017.6 hPa
Clouds: Overcast
Visibility: 10 miles , 16 km
Cloud details: Few Clouds 3600 ft
Mostly cloudy 6500 ft
Overcast 9500 ft
2019/01/16 00:47 KSEE 160047Z VRB06KT 10SM FEW036 BKN065 OVC095 14/10 A3005
KMYF - San Diego/Mntgmy, California, USA
Distance from station: W 6mi, 10km
Updated: 01/15/2019 4:53pm
Light rain, Overcast
Light rain, Overcast
 Wind from SE
Wind: SE 6 mph , 9 km/h
Temperature: 57°F , 14°C
Dew Point: 52°F , 11°C
Humidity: 82%
Barometer: 30.04 inHg , 1017.3 hPa
Summary: Light rain
Clouds: Overcast
Visibility: 8 miles , 13 km
Cloud details: Partly cloudy 4800 ft
Overcast 6000 ft
2019/01/16 00:53 KMYF 160053Z 14005KT 8SM -RA SCT048 OVC060 14/11 A3004 RMK AO2 SLP171 P0001 T01440106
 
KNKX - Miramar Nas/San, California, USA
Distance from station: WNW 7mi, 11km
Updated: 01/15/2019 4:55pm
Light rain, Overcast
Light rain, Overcast
 Wind from SE
Wind: SE 6 mph , 9 km/h
Temperature: 61°F , 16°C
Dew Point: 52°F , 11°C
Humidity: 72%
Barometer: 30.03 inHg , 1016.9 hPa
Summary: Light rain
Clouds: Overcast
Visibility: 8 miles , 13 km
Cloud details: Few Clouds 4700 ft
Mostly cloudy 6000 ft
Overcast 7500 ft
2019/01/16 00:55 KNKX 160055Z 14005KT 8SM -RA FEW047 BKN060 OVC075 16/11 A3003 RMK AO2 RAB05 SLP167 P0000 T01560106
KSAN - San Diego, California, USA
Distance from station: WSW 11mi, 17km
Updated: 01/15/2019 4:51pm
Light rain, Overcast
Light rain, Overcast
 Wind from SSE
Wind: SSE 12 mph , 19 km/h
Temperature: 61°F , 16°C
Dew Point: 54°F , 12°C
Humidity: 77%
Barometer: 30.05 inHg , 1017.6 hPa
Summary: Light rain
Clouds: Overcast
Visibility: 9 miles , 14 km
Cloud details: Partly cloudy 5000 ft
Overcast 7000 ft
2019/01/16 00:51 KSAN 160051Z 15010KT 9SM -RA SCT050 OVC070 16/12 A3005 RMK AO2 SLP175 P0001 T01610117
 
KNZY - North Island Nas, California, USA
Distance from station: SW 13mi, 22km
Updated: 01/15/2019 4:52pm
Overcast
Overcast
 Wind from SSE
Wind: SSE 17 mph , 28 km/h
Temperature: 63°F , 17°C
Dew Point: 55°F , 13°C
Humidity: 77%
Barometer: 30.03 inHg , 1016.9 hPa
Clouds: Overcast
Visibility: 10 miles , 16 km
Cloud details: Few Clouds 2500 ft
Mostly cloudy 6000 ft
Overcast 10000 ft
2019/01/16 00:52 KNZY 160052Z 16015KT 10SM FEW025 BKN060 OVC100 17/13 A3003 RMK AO2 RAE04B22E47 SLP169 T01670128 PNO $
KRNM - Ramona, California, USA
Distance from station: NNE 16mi, 26km
Updated: 01/15/2019 4:53pm
Overcast
Overcast
 Wind from SSE
Wind: SSE 6 mph , 9 km/h
Temperature: 52°F , 11°C
Dew Point: 46°F , 8°C
Humidity: 82%
Barometer: 30.05 inHg , 1017.6 hPa
Clouds: Overcast
Visibility: 10 miles , 16 km
Cloud details: Few Clouds 2100 ft
Mostly cloudy 3100 ft
Overcast 5000 ft
2019/01/16 00:53 KRNM 160053Z 16005KT 10SM FEW021 BKN031 OVC050 11/08 A3005 RMK AO2 RAB06E48 SLP172 P0000 T01110078
 
KSDM - San Diego/Brown, California, USA
Distance from station: S 16mi, 26km
Updated: 01/15/2019 4:53pm
Overcast
Overcast
 Wind from SSE
Wind: SSE 13 mph , 20 km/h
Temperature: 59°F , 15°C
Dew Point: 52°F , 11°C
Humidity: 77%
Barometer: 30.03 inHg , 1016.9 hPa
Clouds: Overcast
Visibility: 10 miles , 16 km
Cloud details: Mostly cloudy 6500 ft
Overcast 10000 ft
2019/01/16 00:53 KSDM 160053Z 16011KT 10SM BKN065 OVC100 15/11 A3003 RMK AO2 RAE13 SLP168 P0002 T01500111
KNRS - Imperial Beach, California, USA
Distance from station: SSW 18mi, 29km
Updated: 01/15/2019 4:56pm
Mostly cloudy
Mostly cloudy
 Wind from SSE
Wind: SSE 7 mph , 11 km/h
Temperature: 61°F , 16°C
Dew Point: 54°F , 12°C
Humidity: 77%
Barometer: 30.05 inHg , 1017.6 hPa
Clouds: Mostly cloudy
Visibility: 10 miles , 16 km
Cloud details: Few Clouds 4500 ft
Partly cloudy 7500 ft
Mostly cloudy 9000 ft
Mostly cloudy 20000 ft
2019/01/16 00:56 KNRS 160056Z 16006KT 10SM FEW045 SCT075 BKN090 BKN200 16/12 A3005 RMK AO2 RAE05B26E54 SLP175 P0000 T01610117 $
 
MMTJ - Tijuana Intl Arp, Mexico
Distance from station: S 20mi, 32km
Updated: 01/15/2019 4:43pm
Mostly cloudy
Mostly cloudy
 Wind from SE
Wind: SE 9 mph , 15 km/h
Temperature: 59°F , 15°C
Dew Point: 52°F , 11°C
Humidity: 77%
Barometer: 30.07 inHg , 1018.3 hPa
Clouds: Mostly cloudy
Visibility: 10 miles , 16 km
Cloud details: Partly cloudy 1500 ft
Mostly cloudy 3000 ft
Mostly cloudy 12000 ft
2019/01/16 00:43 MMTJ 160043Z 14008KT 10SM SCT015 BKN030 BKN120 15/11 A3007 RMK 8/490 RA OCNL
KCRQ - Carlsbad, California, USA
Distance from station: NW 26mi, 43km
Updated: 01/15/2019 4:53pm
Light rain, Overcast
Light rain, Overcast
 Wind from S
Wind: S 3 mph , 6 km/h
Temperature: 61°F , 16°C
Dew Point: 52°F , 11°C
Humidity: 72%
Barometer: 30.04 inHg , 1017.3 hPa
Summary: Light rain
Clouds: Overcast
Visibility: 9 miles , 14 km
Cloud details: Few Clouds 4400 ft
Overcast 5500 ft
2019/01/16 00:53 KCRQ 160053Z 17003KT 9SM -RA FEW044 OVC055 16/11 A3004 RMK AO2 RAB28 PRESRR SLP171 P0001 T01560111
 
KOKB - Oceanside, California, USA
Distance from station: NW 33mi, 54km
Updated: 01/15/2019 5:01pm
Rain, Mist, Overcast
Rain, Mist, Overcast
 Wind from SE
Wind: SE 6 mph , 9 km/h
Temperature: 57°F , 14°C
Dew Point: 54°F , 12°C
Humidity: 88%
Barometer: 30.05 inHg , 1017.6 hPa
Summary: Rain, Mist
Clouds: Overcast
Visibility: 3 miles , 5 km
Cloud details: Few Clouds 2800 ft
Mostly cloudy 4800 ft
Overcast 6000 ft
2019/01/16 01:01 KOKB 160101Z AUTO 14005KT 3SM RA BR FEW028 BKN048 OVC060 14/12 A3005 RMK AO2 P0003 T01390122
KCZZ - Campo, California, USA
Distance from station: ESE 35mi, 56km
Updated: 01/15/2019 4:52pm

 Wind from SW
Wind: SW 8 mph , 13 km/h
Temperature: 52°F , 11°C
Dew Point: 43°F , 6°C
Humidity: 72%
Barometer: 30.01 inHg , 1016.3 hPa
2019/01/16 00:52 KCZZ 160052Z AUTO 23007KT 11/06 A3001 RMK AO1 SLP149 T01060061
 
KNFG - Camp Pendleton, California, USA
Distance from station: NNW 37mi, 59km
Updated: 01/15/2019 4:55pm
Rain, Mist, Overcast
Rain, Mist, Overcast
 Wind from NE
Wind: NE 3 mph , 6 km/h
Temperature: 54°F , 12°C
Dew Point: 54°F , 12°C
Humidity: 100%
Barometer: 30.06 inHg , 1017.9 hPa
Summary: Rain, Mist
Clouds: Overcast
Visibility: 2 miles , 3 km
Cloud details: Mostly cloudy 2500 ft
Mostly cloudy 3400 ft
Overcast 6000 ft
2019/01/16 00:55 KNFG 160055Z 05003KT 2SM RA BR BKN025 BKN034 OVC060 12/12 A3006 RMK AO2 RAB23 SLP178 P0002 T01220117 $
KRIV - Riverside/March, California, USA
Distance from station: N 74mi, 119km
Updated: 01/15/2019 4:58pm
Light rain, Overcast
Light rain, Overcast
 Wind from calm
Wind: Calm
Temperature: 50°F , 10°C
Dew Point: 50°F , 10°C
Humidity: 100%
Barometer: 30.05 inHg , 1017.6 hPa
Summary: Light rain
Clouds: Overcast
Visibility: 10 miles , 16 km
Cloud details: Few Clouds 2800 ft
Partly cloudy 3700 ft
Overcast 4800 ft
2019/01/16 00:58 KRIV 160058Z AUTO 00000KT 10SM -RA FEW028 SCT037 OVC048 10/10 A3005 RMK AO2 RAB13 SLP177 P0005 T01030103 $
 
KTRM - Thermal/Palm Spg, California, USA
Distance from station: NE 75mi, 121km
Updated: 01/15/2019 4:52pm
Mostly cloudy
Mostly cloudy
 Wind from SSE
Wind: SSE 3 mph , 6 km/h
Temperature: 57°F , 14°C
Dew Point: 52°F , 11°C
Humidity: 82%
Barometer: 30.02 inHg , 1016.6 hPa
Clouds: Mostly cloudy
Visibility: 7 miles , 11 km
Cloud details: Few Clouds 1400 ft
Mostly cloudy 8000 ft
Mostly cloudy 10000 ft
2019/01/16 00:52 KTRM 160052Z AUTO 16003KT 7SM FEW014 BKN080 BKN100 14/11 A3002 RMK AO2 SLP167 T01390111 TSNO
KPSP - Palm Springs, California, USA
Distance from station: NNE 76mi, 122km
Updated: 01/15/2019 4:53pm
Light rain, Overcast
Light rain, Overcast
 Wind from calm
Wind: Calm
Temperature: 57°F , 14°C
Dew Point: 48°F , 9°C
Humidity: 72%
Barometer: 30.04 inHg , 1017.3 hPa
Summary: Light rain
Clouds: Overcast
Visibility: 10 miles , 16 km
Cloud details: Overcast 7500 ft
2019/01/16 00:53 KPSP 160053Z 00000KT 10SM -RA OVC075 14/09 A3004 RMK AO2 RAB2356E11B43 SLP174 P0000 T01390089
 
KSNA - Costa Mesa, California, USA
Distance from station: NW 76mi, 123km
Updated: 01/15/2019 4:53pm
Light rain, Overcast
Light rain, Overcast
 Wind from E
Wind: E 10 mph , 17 km/h
Temperature: 54°F , 12°C
Dew Point: 48°F , 9°C
Humidity: 82%
Barometer: 30.02 inHg , 1016.6 hPa
Summary: Light rain
Clouds: Overcast
Visibility: 6 miles , 10 km
Cloud details: Few Clouds 3600 ft
Mostly cloudy 5500 ft
Overcast 7000 ft
2019/01/16 00:53 KSNA 160053Z 10009KT 6SM -RA FEW036 BKN055 OVC070 12/09 A3002 RMK AO2 SLP166 P0008 T01220094
KNJK - El Centro Naf, California, USA
Distance from station: E 79mi, 127km
Updated: 01/15/2019 4:56pm
Clear
Clear
 Wind from NE
Wind: NE 5 mph , 7 km/h
Temperature: 57°F , 14°C
Dew Point: 52°F , 11°C
Humidity: 82%
Barometer: 30.06 inHg , 1017.9 hPa
Clouds: Clear
Visibility: 10 miles , 16 km
2019/01/16 00:56 KNJK 160056Z 04004KT 10SM CLR 14/11 A3006 RMK AO2 SLP193 T01390111 $
 
KAJO - Corona Muni, California, USA
Distance from station: NNW 82mi, 132km
Updated: 01/15/2019 4:56pm
Light rain
Light rain
 
Summary: Light rain
Visibility: 7 miles , 11 km
2019/01/16 00:56 KAJO 160056Z AUTO 7SM -RA RMK AO2 SLPNO P0010 FZRANO $